sensor_id;sensor_type;location;lat;lon;timestamp;P1;durP1;ratioP1;P2;durP2;ratioP2
76566;SDS011;65428;53.194;6.132;2024-03-25T00:00:32;16.92;;;6.95;;
76566;SDS011;65428;53.194;6.132;2024-03-25T00:02:57;19.83;;;8.35;;
76566;SDS011;65428;53.194;6.132;2024-03-25T00:05:23;17.85;;;8.73;;
76566;SDS011;65428;53.194;6.132;2024-03-25T00:07:50;14.65;;;7.85;;
76566;SDS011;65428;53.194;6.132;2024-03-25T00:10:17;18.58;;;12.23;;
76566;SDS011;65428;53.194;6.132;2024-03-25T00:12:43;20.55;;;7.65;;
76566;SDS011;65428;53.194;6.132;2024-03-25T00:15:09;18.93;;;10.30;;
76566;SDS011;65428;53.194;6.132;2024-03-25T00:17:34;16.95;;;9.48;;
76566;SDS011;65428;53.194;6.132;2024-03-25T00:20:00;19.17;;;7.87;;
76566;SDS011;65428;53.194;6.132;2024-03-25T00:22:26;19.03;;;7.77;;
76566;SDS011;65428;53.194;6.132;2024-03-25T00:24:52;14.13;;;7.97;;
76566;SDS011;65428;53.194;6.132;2024-03-25T00:27:18;17.70;;;7.93;;
76566;SDS011;65428;53.194;6.132;2024-03-25T00:29:44;16.90;;;7.77;;
76566;SDS011;65428;53.194;6.132;2024-03-25T00:32:10;18.15;;;7.97;;
76566;SDS011;65428;53.194;6.132;2024-03-25T00:34:36;17.77;;;8.00;;
76566;SDS011;65428;53.194;6.132;2024-03-25T00:37:02;19.45;;;8.45;;
76566;SDS011;65428;53.194;6.132;2024-03-25T00:39:29;17.45;;;9.88;;
76566;SDS011;65428;53.194;6.132;2024-03-25T00:41:57;13.98;;;8.38;;
76566;SDS011;65428;53.194;6.132;2024-03-25T00:44:23;15.98;;;8.23;;
76566;SDS011;65428;53.194;6.132;2024-03-25T00:46:49;16.80;;;8.05;;
76566;SDS011;65428;53.194;6.132;2024-03-25T00:49:16;17.80;;;6.93;;
76566;SDS011;65428;53.194;6.132;2024-03-25T00:51:42;15.83;;;8.40;;
76566;SDS011;65428;53.194;6.132;2024-03-25T00:54:08;17.58;;;7.65;;
76566;SDS011;65428;53.194;6.132;2024-03-25T00:56:33;18.75;;;8.35;;
76566;SDS011;65428;53.194;6.132;2024-03-25T00:58:59;15.98;;;7.13;;
76566;SDS011;65428;53.194;6.132;2024-03-25T01:01:28;15.38;;;7.30;;
76566;SDS011;65428;53.194;6.132;2024-03-25T01:03:54;17.13;;;7.20;;
76566;SDS011;65428;53.194;6.132;2024-03-25T01:06:20;15.35;;;7.30;;
76566;SDS011;65428;53.194;6.132;2024-03-25T01:08:46;12.73;;;6.88;;
76566;SDS011;65428;53.194;6.132;2024-03-25T01:11:12;18.77;;;6.40;;
76566;SDS011;65428;53.194;6.132;2024-03-25T01:13:38;15.20;;;6.40;;
76566;SDS011;65428;53.194;6.132;2024-03-25T01:16:04;16.93;;;6.47;;
76566;SDS011;65428;53.194;6.132;2024-03-25T01:18:29;16.67;;;7.53;;
76566;SDS011;65428;53.194;6.132;2024-03-25T01:20:55;15.17;;;7.60;;
76566;SDS011;65428;53.194;6.132;2024-03-25T01:23:21;20.30;;;6.40;;
76566;SDS011;65428;53.194;6.132;2024-03-25T01:25:47;17.15;;;6.82;;
76566;SDS011;65428;53.194;6.132;2024-03-25T01:28:12;15.37;;;6.70;;
76566;SDS011;65428;53.194;6.132;2024-03-25T01:30:38;14.17;;;5.17;;
76566;SDS011;65428;53.194;6.132;2024-03-25T01:33:04;15.05;;;6.47;;
76566;SDS011;65428;53.194;6.132;2024-03-25T01:35:30;15.68;;;6.28;;
76566;SDS011;65428;53.194;6.132;2024-03-25T01:37:56;11.73;;;7.10;;
76566;SDS011;65428;53.194;6.132;2024-03-25T01:40:22;15.65;;;6.95;;
76566;SDS011;65428;53.194;6.132;2024-03-25T01:42:58;14.88;;;5.57;;
76566;SDS011;65428;53.194;6.132;2024-03-25T01:45:25;11.32;;;4.10;;
76566;SDS011;65428;53.194;6.132;2024-03-25T01:47:54;13.48;;;5.00;;
76566;SDS011;65428;53.194;6.132;2024-03-25T01:50:26;14.00;;;4.32;;
76566;SDS011;65428;53.194;6.132;2024-03-25T01:52:52;10.93;;;3.50;;
76566;SDS011;65428;53.194;6.132;2024-03-25T01:55:20;13.82;;;3.42;;
76566;SDS011;65428;53.194;6.132;2024-03-25T01:57:48;13.52;;;3.70;;
76566;SDS011;65428;53.194;6.132;2024-03-25T02:00:14;12.52;;;3.42;;
76566;SDS011;65428;53.194;6.132;2024-03-25T02:02:44;15.10;;;3.40;;
76566;SDS011;65428;53.194;6.132;2024-03-25T02:05:11;10.23;;;3.67;;
76566;SDS011;65428;53.194;6.132;2024-03-25T02:07:41;13.77;;;3.17;;
76566;SDS011;65428;53.194;6.132;2024-03-25T02:10:09;12.82;;;3.33;;
76566;SDS011;65428;53.194;6.132;2024-03-25T02:12:38;15.00;;;5.50;;
76566;SDS011;65428;53.194;6.132;2024-03-25T02:15:05;11.65;;;5.53;;
76566;SDS011;65428;53.194;6.132;2024-03-25T02:17:31;13.32;;;5.35;;
76566;SDS011;65428;53.194;6.132;2024-03-25T02:19:57;11.60;;;5.70;;
76566;SDS011;65428;53.194;6.132;2024-03-25T02:22:22;12.23;;;5.05;;
76566;SDS011;65428;53.194;6.132;2024-03-25T02:24:49;12.63;;;4.53;;
76566;SDS011;65428;53.194;6.132;2024-03-25T02:27:17;11.90;;;5.20;;
76566;SDS011;65428;53.194;6.132;2024-03-25T02:29:43;13.13;;;3.70;;
76566;SDS011;65428;53.194;6.132;2024-03-25T02:32:09;12.25;;;5.35;;
76566;SDS011;65428;53.194;6.132;2024-03-25T02:34:39;12.80;;;5.30;;
76566;SDS011;65428;53.194;6.132;2024-03-25T02:37:10;11.85;;;5.00;;
76566;SDS011;65428;53.194;6.132;2024-03-25T02:39:36;15.43;;;6.68;;
76566;SDS011;65428;53.194;6.132;2024-03-25T02:42:02;16.35;;;4.53;;
76566;SDS011;65428;53.194;6.132;2024-03-25T02:44:28;13.48;;;4.22;;
76566;SDS011;65428;53.194;6.132;2024-03-25T02:46:56;14.07;;;5.45;;
76566;SDS011;65428;53.194;6.132;2024-03-25T02:49:22;13.18;;;6.53;;
76566;SDS011;65428;53.194;6.132;2024-03-25T02:51:48;14.93;;;5.43;;
76566;SDS011;65428;53.194;6.132;2024-03-25T02:54:13;11.50;;;5.73;;
76566;SDS011;65428;53.194;6.132;2024-03-25T02:56:40;12.10;;;4.07;;
76566;SDS011;65428;53.194;6.132;2024-03-25T02:59:06;9.20;;;5.50;;
76566;SDS011;65428;53.194;6.132;2024-03-25T03:01:32;14.27;;;6.87;;
76566;SDS011;65428;53.194;6.132;2024-03-25T03:03:58;14.80;;;6.75;;
76566;SDS011;65428;53.194;6.132;2024-03-25T03:06:23;12.10;;;4.47;;
76566;SDS011;65428;53.194;6.132;2024-03-25T03:08:49;14.45;;;4.95;;
76566;SDS011;65428;53.194;6.132;2024-03-25T03:11:15;15.25;;;4.22;;
76566;SDS011;65428;53.194;6.132;2024-03-25T03:13:41;13.90;;;3.97;;
76566;SDS011;65428;53.194;6.132;2024-03-25T03:16:06;12.83;;;4.10;;
76566;SDS011;65428;53.194;6.132;2024-03-25T03:18:32;13.52;;;4.28;;
76566;SDS011;65428;53.194;6.132;2024-03-25T03:20:58;16.02;;;4.57;;
76566;SDS011;65428;53.194;6.132;2024-03-25T03:23:23;16.23;;;4.93;;
76566;SDS011;65428;53.194;6.132;2024-03-25T03:25:49;15.67;;;5.80;;
76566;SDS011;65428;53.194;6.132;2024-03-25T03:28:15;15.63;;;5.25;;
76566;SDS011;65428;53.194;6.132;2024-03-25T03:30:42;11.35;;;3.88;;
76566;SDS011;65428;53.194;6.132;2024-03-25T03:33:08;13.60;;;4.50;;
76566;SDS011;65428;53.194;6.132;2024-03-25T03:35:34;16.57;;;4.47;;
76566;SDS011;65428;53.194;6.132;2024-03-25T03:38:00;13.67;;;5.30;;
76566;SDS011;65428;53.194;6.132;2024-03-25T03:40:25;13.27;;;5.97;;
76566;SDS011;65428;53.194;6.132;2024-03-25T03:42:51;14.73;;;5.53;;
76566;SDS011;65428;53.194;6.132;2024-03-25T03:45:17;15.18;;;4.82;;
76566;SDS011;65428;53.194;6.132;2024-03-25T03:47:43;16.20;;;6.57;;
76566;SDS011;65428;53.194;6.132;2024-03-25T03:50:09;16.13;;;6.43;;
76566;SDS011;65428;53.194;6.132;2024-03-25T03:52:35;13.37;;;5.70;;
76566;SDS011;65428;53.194;6.132;2024-03-25T03:55:00;16.73;;;5.73;;
76566;SDS011;65428;53.194;6.132;2024-03-25T03:57:26;10.18;;;4.90;;
76566;SDS011;65428;53.194;6.132;2024-03-25T03:59:52;14.13;;;5.72;;
76566;SDS011;65428;53.194;6.132;2024-03-25T04:02:18;11.48;;;5.88;;
76566;SDS011;65428;53.194;6.132;2024-03-25T04:04:43;17.93;;;5.83;;
76566;SDS011;65428;53.194;6.132;2024-03-25T04:07:09;13.17;;;6.73;;
76566;SDS011;65428;53.194;6.132;2024-03-25T04:09:35;15.57;;;5.97;;
76566;SDS011;65428;53.194;6.132;2024-03-25T04:12:01;14.88;;;5.93;;
76566;SDS011;65428;53.194;6.132;2024-03-25T04:14:27;15.38;;;6.97;;
76566;SDS011;65428;53.194;6.132;2024-03-25T04:16:52;18.80;;;6.60;;
76566;SDS011;65428;53.194;6.132;2024-03-25T04:19:27;17.33;;;6.50;;
76566;SDS011;65428;53.194;6.132;2024-03-25T04:21:54;18.80;;;7.18;;
76566;SDS011;65428;53.194;6.132;2024-03-25T04:24:19;16.35;;;6.25;;
76566;SDS011;65428;53.194;6.132;2024-03-25T04:26:45;13.73;;;5.97;;
76566;SDS011;65428;53.194;6.132;2024-03-25T04:29:11;24.38;;;7.03;;
76566;SDS011;65428;53.194;6.132;2024-03-25T04:31:37;17.63;;;6.13;;
76566;SDS011;65428;53.194;6.132;2024-03-25T04:34:03;14.83;;;7.67;;
76566;SDS011;65428;53.194;6.132;2024-03-25T04:36:29;17.20;;;8.13;;
76566;SDS011;65428;53.194;6.132;2024-03-25T04:38:55;22.40;;;7.55;;
76566;SDS011;65428;53.194;6.132;2024-03-25T04:41:22;17.83;;;8.20;;
76566;SDS011;65428;53.194;6.132;2024-03-25T04:43:48;17.03;;;8.30;;
76566;SDS011;65428;53.194;6.132;2024-03-25T04:46:13;13.67;;;6.07;;
76566;SDS011;65428;53.194;6.132;2024-03-25T04:48:39;17.35;;;6.53;;
76566;SDS011;65428;53.194;6.132;2024-03-25T04:51:05;11.75;;;5.78;;
76566;SDS011;65428;53.194;6.132;2024-03-25T04:53:31;11.77;;;5.57;;
76566;SDS011;65428;53.194;6.132;2024-03-25T04:55:57;12.23;;;5.23;;
76566;SDS011;65428;53.194;6.132;2024-03-25T04:58:23;12.73;;;5.70;;
76566;SDS011;65428;53.194;6.132;2024-03-25T05:00:49;9.82;;;5.45;;
76566;SDS011;65428;53.194;6.132;2024-03-25T05:03:14;11.20;;;5.50;;
76566;SDS011;65428;53.194;6.132;2024-03-25T05:05:40;13.47;;;4.73;;
76566;SDS011;65428;53.194;6.132;2024-03-25T05:08:06;11.18;;;4.88;;
76566;SDS011;65428;53.194;6.132;2024-03-25T05:10:32;11.43;;;6.03;;
76566;SDS011;65428;53.194;6.132;2024-03-25T05:12:57;13.88;;;5.60;;
76566;SDS011;65428;53.194;6.132;2024-03-25T05:15:23;15.07;;;6.10;;
76566;SDS011;65428;53.194;6.132;2024-03-25T05:17:49;14.00;;;6.67;;
76566;SDS011;65428;53.194;6.132;2024-03-25T05:20:14;14.65;;;7.32;;
76566;SDS011;65428;53.194;6.132;2024-03-25T05:22:40;17.05;;;7.32;;
76566;SDS011;65428;53.194;6.132;2024-03-25T05:25:06;16.60;;;7.60;;
76566;SDS011;65428;53.194;6.132;2024-03-25T05:27:32;19.40;;;8.55;;
76566;SDS011;65428;53.194;6.132;2024-03-25T05:29:58;18.85;;;6.57;;
76566;SDS011;65428;53.194;6.132;2024-03-25T05:32:24;13.55;;;5.88;;
76566;SDS011;65428;53.194;6.132;2024-03-25T05:34:50;16.92;;;5.90;;
76566;SDS011;65428;53.194;6.132;2024-03-25T05:37:16;14.40;;;6.25;;
76566;SDS011;65428;53.194;6.132;2024-03-25T05:39:41;13.63;;;5.70;;
76566;SDS011;65428;53.194;6.132;2024-03-25T05:42:07;13.57;;;5.17;;
76566;SDS011;65428;53.194;6.132;2024-03-25T05:44:33;12.65;;;5.22;;
76566;SDS011;65428;53.194;6.132;2024-03-25T05:46:59;12.38;;;5.10;;
76566;SDS011;65428;53.194;6.132;2024-03-25T05:49:24;15.82;;;6.18;;
76566;SDS011;65428;53.194;6.132;2024-03-25T05:51:51;10.45;;;5.60;;
76566;SDS011;65428;53.194;6.132;2024-03-25T05:54:16;10.75;;;5.95;;
76566;SDS011;65428;53.194;6.132;2024-03-25T05:56:42;9.32;;;6.38;;
76566;SDS011;65428;53.194;6.132;2024-03-25T05:59:08;6.37;;;4.60;;
76566;SDS011;65428;53.194;6.132;2024-03-25T06:04:03;9.27;;;4.27;;
76566;SDS011;65428;53.194;6.132;2024-03-25T06:06:29;11.30;;;5.32;;
76566;SDS011;65428;53.194;6.132;2024-03-25T06:08:55;8.88;;;5.22;;
76566;SDS011;65428;53.194;6.132;2024-03-25T06:11:21;11.43;;;6.18;;
76566;SDS011;65428;53.194;6.132;2024-03-25T06:13:47;10.87;;;6.07;;
76566;SDS011;65428;53.194;6.132;2024-03-25T06:16:13;10.18;;;5.82;;
76566;SDS011;65428;53.194;6.132;2024-03-25T06:18:39;12.02;;;6.63;;
76566;SDS011;65428;53.194;6.132;2024-03-25T06:21:07;14.13;;;7.50;;
76566;SDS011;65428;53.194;6.132;2024-03-25T06:23:33;13.17;;;7.03;;
76566;SDS011;65428;53.194;6.132;2024-03-25T06:25:59;14.48;;;7.43;;
76566;SDS011;65428;53.194;6.132;2024-03-25T06:28:24;12.40;;;8.55;;
76566;SDS011;65428;53.194;6.132;2024-03-25T06:30:51;14.55;;;7.50;;
76566;SDS011;65428;53.194;6.132;2024-03-25T06:33:35;12.18;;;6.40;;
76566;SDS011;65428;53.194;6.132;2024-03-25T06:36:20;12.27;;;6.10;;
76566;SDS011;65428;53.194;6.132;2024-03-25T06:38:46;11.88;;;6.22;;
76566;SDS011;65428;53.194;6.132;2024-03-25T06:41:12;12.77;;;6.75;;
76566;SDS011;65428;53.194;6.132;2024-03-25T06:43:38;13.00;;;6.77;;
76566;SDS011;65428;53.194;6.132;2024-03-25T06:46:07;13.07;;;6.07;;
76566;SDS011;65428;53.194;6.132;2024-03-25T06:48:33;11.63;;;7.00;;
76566;SDS011;65428;53.194;6.132;2024-03-25T06:51:02;11.20;;;6.03;;
76566;SDS011;65428;53.194;6.132;2024-03-25T06:53:28;12.20;;;5.27;;
76566;SDS011;65428;53.194;6.132;2024-03-25T06:55:57;14.68;;;5.38;;
76566;SDS011;65428;53.194;6.132;2024-03-25T06:58:24;9.60;;;6.10;;
76566;SDS011;65428;53.194;6.132;2024-03-25T07:00:52;11.50;;;5.05;;
76566;SDS011;65428;53.194;6.132;2024-03-25T07:03:19;8.18;;;4.30;;
76566;SDS011;65428;53.194;6.132;2024-03-25T07:05:46;7.63;;;3.40;;
76566;SDS011;65428;53.194;6.132;2024-03-25T07:08:14;11.65;;;4.35;;
76566;SDS011;65428;53.194;6.132;2024-03-25T07:10:43;8.60;;;3.95;;
76566;SDS011;65428;53.194;6.132;2024-03-25T07:13:09;9.60;;;3.85;;
76566;SDS011;65428;53.194;6.132;2024-03-25T07:15:35;8.98;;;3.30;;
76566;SDS011;65428;53.194;6.132;2024-03-25T07:18:02;8.80;;;3.53;;
76566;SDS011;65428;53.194;6.132;2024-03-25T07:20:28;8.63;;;3.53;;
76566;SDS011;65428;53.194;6.132;2024-03-25T07:22:54;6.55;;;3.17;;
76566;SDS011;65428;53.194;6.132;2024-03-25T07:25:21;7.53;;;3.47;;
76566;SDS011;65428;53.194;6.132;2024-03-25T07:27:47;8.90;;;3.53;;
76566;SDS011;65428;53.194;6.132;2024-03-25T07:30:13;9.48;;;3.47;;
76566;SDS011;65428;53.194;6.132;2024-03-25T07:32:39;10.85;;;3.95;;
76566;SDS011;65428;53.194;6.132;2024-03-25T07:35:05;8.82;;;3.45;;
76566;SDS011;65428;53.194;6.132;2024-03-25T07:37:33;9.48;;;4.70;;
76566;SDS011;65428;53.194;6.132;2024-03-25T07:39:59;8.37;;;5.43;;
76566;SDS011;65428;53.194;6.132;2024-03-25T07:42:24;8.57;;;5.40;;
76566;SDS011;65428;53.194;6.132;2024-03-25T07:44:50;10.10;;;6.03;;
76566;SDS011;65428;53.194;6.132;2024-03-25T07:47:16;8.05;;;4.20;;
76566;SDS011;65428;53.194;6.132;2024-03-25T07:49:42;7.47;;;4.20;;
76566;SDS011;65428;53.194;6.132;2024-03-25T07:52:07;7.47;;;4.00;;
76566;SDS011;65428;53.194;6.132;2024-03-25T07:54:33;8.37;;;3.30;;
76566;SDS011;65428;53.194;6.132;2024-03-25T07:57:01;7.95;;;5.22;;
76566;SDS011;65428;53.194;6.132;2024-03-25T07:59:28;8.68;;;5.22;;
76566;SDS011;65428;53.194;6.132;2024-03-25T08:01:54;9.15;;;4.43;;
76566;SDS011;65428;53.194;6.132;2024-03-25T08:04:20;9.68;;;5.22;;
76566;SDS011;65428;53.194;6.132;2024-03-25T08:06:45;9.07;;;5.30;;
76566;SDS011;65428;53.194;6.132;2024-03-25T08:09:11;10.33;;;5.03;;
76566;SDS011;65428;53.194;6.132;2024-03-25T08:11:40;11.52;;;5.43;;
76566;SDS011;65428;53.194;6.132;2024-03-25T08:14:08;10.30;;;4.53;;
76566;SDS011;65428;53.194;6.132;2024-03-25T08:16:35;10.13;;;4.53;;
76566;SDS011;65428;53.194;6.132;2024-03-25T08:19:00;7.18;;;3.75;;
76566;SDS011;65428;53.194;6.132;2024-03-25T08:21:26;9.38;;;3.55;;
76566;SDS011;65428;53.194;6.132;2024-03-25T08:23:52;9.27;;;3.87;;
76566;SDS011;65428;53.194;6.132;2024-03-25T08:26:18;7.70;;;3.93;;
76566;SDS011;65428;53.194;6.132;2024-03-25T08:28:44;7.25;;;3.83;;
76566;SDS011;65428;53.194;6.132;2024-03-25T08:31:10;9.80;;;3.10;;
76566;SDS011;65428;53.194;6.132;2024-03-25T08:33:36;10.18;;;3.45;;
76566;SDS011;65428;53.194;6.132;2024-03-25T08:36:01;8.32;;;3.38;;
76566;SDS011;65428;53.194;6.132;2024-03-25T08:38:28;8.50;;;3.08;;
76566;SDS011;65428;53.194;6.132;2024-03-25T08:40:54;9.20;;;4.37;;
76566;SDS011;65428;53.194;6.132;2024-03-25T08:43:20;8.30;;;3.58;;
76566;SDS011;65428;53.194;6.132;2024-03-25T08:45:45;7.70;;;4.13;;
76566;SDS011;65428;53.194;6.132;2024-03-25T08:48:11;8.68;;;3.60;;
76566;SDS011;65428;53.194;6.132;2024-03-25T08:50:37;9.52;;;4.40;;
76566;SDS011;65428;53.194;6.132;2024-03-25T08:53:03;10.07;;;3.70;;
76566;SDS011;65428;53.194;6.132;2024-03-25T08:55:29;10.40;;;3.30;;
76566;SDS011;65428;53.194;6.132;2024-03-25T08:57:56;11.18;;;3.40;;
76566;SDS011;65428;53.194;6.132;2024-03-25T09:00:24;11.60;;;3.90;;
76566;SDS011;65428;53.194;6.132;2024-03-25T09:02:53;10.57;;;3.80;;
76566;SDS011;65428;53.194;6.132;2024-03-25T09:05:19;11.90;;;3.80;;
76566;SDS011;65428;53.194;6.132;2024-03-25T09:07:45;9.98;;;4.00;;
76566;SDS011;65428;53.194;6.132;2024-03-25T09:10:15;14.73;;;3.78;;
76566;SDS011;65428;53.194;6.132;2024-03-25T09:12:59;11.98;;;5.47;;
76566;SDS011;65428;53.194;6.132;2024-03-25T09:15:25;13.55;;;4.55;;
76566;SDS011;65428;53.194;6.132;2024-03-25T09:17:51;11.27;;;4.30;;
76566;SDS011;65428;53.194;6.132;2024-03-25T09:20:17;11.37;;;4.40;;
76566;SDS011;65428;53.194;6.132;2024-03-25T09:22:43;10.98;;;4.15;;
76566;SDS011;65428;53.194;6.132;2024-03-25T09:25:09;9.67;;;2.50;;
76566;SDS011;65428;53.194;6.132;2024-03-25T09:27:35;12.90;;;4.17;;
76566;SDS011;65428;53.194;6.132;2024-03-25T09:30:01;10.35;;;3.17;;
76566;SDS011;65428;53.194;6.132;2024-03-25T09:32:28;8.07;;;3.83;;
76566;SDS011;65428;53.194;6.132;2024-03-25T09:34:56;14.55;;;10.52;;
76566;SDS011;65428;53.194;6.132;2024-03-25T09:37:22;11.43;;;4.33;;
76566;SDS011;65428;53.194;6.132;2024-03-25T09:39:48;11.97;;;4.20;;
76566;SDS011;65428;53.194;6.132;2024-03-25T09:42:18;11.27;;;4.68;;
76566;SDS011;65428;53.194;6.132;2024-03-25T09:44:51;11.27;;;5.17;;
76566;SDS011;65428;53.194;6.132;2024-03-25T09:47:20;10.73;;;4.32;;
76566;SDS011;65428;53.194;6.132;2024-03-25T09:49:49;10.10;;;5.25;;
76566;SDS011;65428;53.194;6.132;2024-03-25T09:52:17;10.13;;;5.63;;
76566;SDS011;65428;53.194;6.132;2024-03-25T09:54:43;13.20;;;5.43;;
76566;SDS011;65428;53.194;6.132;2024-03-25T09:57:09;12.43;;;6.70;;
76566;SDS011;65428;53.194;6.132;2024-03-25T09:59:36;11.90;;;6.32;;
76566;SDS011;65428;53.194;6.132;2024-03-25T10:02:02;14.35;;;8.77;;
76566;SDS011;65428;53.194;6.132;2024-03-25T10:04:28;11.70;;;4.85;;
76566;SDS011;65428;53.194;6.132;2024-03-25T10:06:55;12.00;;;5.22;;
76566;SDS011;65428;53.194;6.132;2024-03-25T10:09:21;12.53;;;3.70;;
76566;SDS011;65428;53.194;6.132;2024-03-25T10:11:48;10.20;;;3.40;;
76566;SDS011;65428;53.194;6.132;2024-03-25T10:14:15;11.48;;;2.28;;
76566;SDS011;65428;53.194;6.132;2024-03-25T10:16:41;9.85;;;3.08;;
76566;SDS011;65428;53.194;6.132;2024-03-25T10:19:08;9.35;;;2.35;;
76566;SDS011;65428;53.194;6.132;2024-03-25T10:21:34;9.07;;;2.85;;
76566;SDS011;65428;53.194;6.132;2024-03-25T10:24:00;9.05;;;2.20;;
76566;SDS011;65428;53.194;6.132;2024-03-25T10:26:30;10.60;;;2.42;;
76566;SDS011;65428;53.194;6.132;2024-03-25T10:29:03;10.45;;;2.03;;
76566;SDS011;65428;53.194;6.132;2024-03-25T10:31:36;11.68;;;2.60;;
76566;SDS011;65428;53.194;6.132;2024-03-25T10:34:02;9.15;;;2.30;;
76566;SDS011;65428;53.194;6.132;2024-03-25T10:36:28;10.02;;;2.25;;
76566;SDS011;65428;53.194;6.132;2024-03-25T10:38:56;9.88;;;2.65;;
76566;SDS011;65428;53.194;6.132;2024-03-25T10:41:33;8.52;;;2.17;;
76566;SDS011;65428;53.194;6.132;2024-03-25T10:44:00;11.63;;;2.85;;
76566;SDS011;65428;53.194;6.132;2024-03-25T10:46:32;8.45;;;2.33;;
76566;SDS011;65428;53.194;6.132;2024-03-25T10:49:07;9.38;;;2.60;;
76566;SDS011;65428;53.194;6.132;2024-03-25T10:51:48;9.90;;;2.03;;
76566;SDS011;65428;53.194;6.132;2024-03-25T10:54:15;8.32;;;2.60;;
76566;SDS011;65428;53.194;6.132;2024-03-25T10:56:42;10.15;;;2.60;;
76566;SDS011;65428;53.194;6.132;2024-03-25T10:59:09;10.73;;;2.75;;
76566;SDS011;65428;53.194;6.132;2024-03-25T11:01:39;10.73;;;3.03;;
76566;SDS011;65428;53.194;6.132;2024-03-25T11:04:05;10.70;;;3.03;;
76566;SDS011;65428;53.194;6.132;2024-03-25T11:06:31;8.95;;;2.20;;
76566;SDS011;65428;53.194;6.132;2024-03-25T11:08:57;9.82;;;2.70;;
76566;SDS011;65428;53.194;6.132;2024-03-25T11:11:30;10.00;;;2.90;;
76566;SDS011;65428;53.194;6.132;2024-03-25T11:13:57;10.18;;;2.85;;
76566;SDS011;65428;53.194;6.132;2024-03-25T11:16:26;9.23;;;2.40;;
76566;SDS011;65428;53.194;6.132;2024-03-25T11:18:54;7.25;;;3.30;;
76566;SDS011;65428;53.194;6.132;2024-03-25T11:21:26;8.50;;;2.27;;
76566;SDS011;65428;53.194;6.132;2024-03-25T11:23:55;10.73;;;2.75;;
76566;SDS011;65428;53.194;6.132;2024-03-25T11:26:31;10.02;;;2.40;;
76566;SDS011;65428;53.194;6.132;2024-03-25T11:29:00;7.55;;;2.30;;
76566;SDS011;65428;53.194;6.132;2024-03-25T11:31:26;11.20;;;2.40;;
76566;SDS011;65428;53.194;6.132;2024-03-25T11:33:55;10.05;;;3.75;;
76566;SDS011;65428;53.194;6.132;2024-03-25T11:36:22;10.82;;;2.95;;
76566;SDS011;65428;53.194;6.132;2024-03-25T11:38:58;7.70;;;2.60;;
76566;SDS011;65428;53.194;6.132;2024-03-25T11:41:43;9.32;;;3.67;;
76566;SDS011;65428;53.194;6.132;2024-03-25T11:44:10;7.40;;;2.50;;
76566;SDS011;65428;53.194;6.132;2024-03-25T11:46:38;9.60;;;2.70;;
76566;SDS011;65428;53.194;6.132;2024-03-25T11:49:08;7.53;;;1.80;;
76566;SDS011;65428;53.194;6.132;2024-03-25T11:51:37;10.88;;;2.90;;
76566;SDS011;65428;53.194;6.132;2024-03-25T11:54:06;9.98;;;2.25;;
76566;SDS011;65428;53.194;6.132;2024-03-25T11:56:35;11.30;;;2.30;;
76566;SDS011;65428;53.194;6.132;2024-03-25T11:59:03;9.15;;;2.55;;
76566;SDS011;65428;53.194;6.132;2024-03-25T12:01:32;10.77;;;2.40;;
76566;SDS011;65428;53.194;6.132;2024-03-25T12:04:09;10.05;;;2.50;;
76566;SDS011;65428;53.194;6.132;2024-03-25T12:06:40;9.70;;;2.50;;
76566;SDS011;65428;53.194;6.132;2024-03-25T12:09:12;9.48;;;2.10;;
76566;SDS011;65428;53.194;6.132;2024-03-25T12:11:58;9.15;;;2.70;;
76566;SDS011;65428;53.194;6.132;2024-03-25T12:14:24;8.10;;;2.10;;
76566;SDS011;65428;53.194;6.132;2024-03-25T12:16:55;7.65;;;2.40;;
76566;SDS011;65428;53.194;6.132;2024-03-25T12:19:23;8.80;;;2.37;;
76566;SDS011;65428;53.194;6.132;2024-03-25T12:21:49;9.35;;;4.07;;
76566;SDS011;65428;53.194;6.132;2024-03-25T12:24:15;10.00;;;2.60;;
76566;SDS011;65428;53.194;6.132;2024-03-25T12:26:43;10.40;;;2.30;;
76566;SDS011;65428;53.194;6.132;2024-03-25T12:29:09;8.77;;;2.20;;
76566;SDS011;65428;53.194;6.132;2024-03-25T12:31:34;8.20;;;2.65;;
76566;SDS011;65428;53.194;6.132;2024-03-25T12:34:00;8.30;;;2.73;;
76566;SDS011;65428;53.194;6.132;2024-03-25T12:36:29;7.57;;;2.88;;
76566;SDS011;65428;53.194;6.132;2024-03-25T12:38:59;7.95;;;2.63;;
76566;SDS011;65428;53.194;6.132;2024-03-25T12:41:24;8.00;;;2.67;;
76566;SDS011;65428;53.194;6.132;2024-03-25T12:43:51;5.82;;;1.35;;
76566;SDS011;65428;53.194;6.132;2024-03-25T12:46:17;11.93;;;2.07;;
76566;SDS011;65428;53.194;6.132;2024-03-25T12:48:42;7.68;;;2.20;;
76566;SDS011;65428;53.194;6.132;2024-03-25T12:51:13;8.93;;;1.90;;
76566;SDS011;65428;53.194;6.132;2024-03-25T12:53:39;8.38;;;1.90;;
76566;SDS011;65428;53.194;6.132;2024-03-25T12:56:06;9.10;;;2.10;;
76566;SDS011;65428;53.194;6.132;2024-03-25T12:58:32;11.65;;;2.97;;
76566;SDS011;65428;53.194;6.132;2024-03-25T13:00:58;10.13;;;2.55;;
76566;SDS011;65428;53.194;6.132;2024-03-25T13:03:25;9.43;;;2.08;;
76566;SDS011;65428;53.194;6.132;2024-03-25T13:05:50;8.23;;;2.13;;
76566;SDS011;65428;53.194;6.132;2024-03-25T13:08:16;9.53;;;2.40;;
76566;SDS011;65428;53.194;6.132;2024-03-25T13:10:42;10.90;;;3.38;;
76566;SDS011;65428;53.194;6.132;2024-03-25T13:13:08;10.60;;;2.45;;
76566;SDS011;65428;53.194;6.132;2024-03-25T13:15:34;10.13;;;2.45;;
76566;SDS011;65428;53.194;6.132;2024-03-25T13:18:00;8.68;;;2.40;;
76566;SDS011;65428;53.194;6.132;2024-03-25T13:20:26;8.52;;;2.63;;
76566;SDS011;65428;53.194;6.132;2024-03-25T13:22:53;10.23;;;2.77;;
76566;SDS011;65428;53.194;6.132;2024-03-25T13:25:24;10.88;;;3.42;;
76566;SDS011;65428;53.194;6.132;2024-03-25T13:27:50;10.35;;;3.00;;
76566;SDS011;65428;53.194;6.132;2024-03-25T13:30:16;9.37;;;2.80;;
76566;SDS011;65428;53.194;6.132;2024-03-25T13:32:42;9.93;;;2.50;;
76566;SDS011;65428;53.194;6.132;2024-03-25T13:35:07;7.18;;;2.10;;
76566;SDS011;65428;53.194;6.132;2024-03-25T13:37:33;9.00;;;3.00;;
76566;SDS011;65428;53.194;6.132;2024-03-25T13:39:59;8.77;;;2.45;;
76566;SDS011;65428;53.194;6.132;2024-03-25T13:42:24;7.43;;;2.58;;
76566;SDS011;65428;53.194;6.132;2024-03-25T13:44:50;10.73;;;2.60;;
76566;SDS011;65428;53.194;6.132;2024-03-25T13:47:16;8.18;;;1.90;;
76566;SDS011;65428;53.194;6.132;2024-03-25T13:49:41;7.50;;;2.00;;
76566;SDS011;65428;53.194;6.132;2024-03-25T13:52:07;7.43;;;2.15;;
76566;SDS011;65428;53.194;6.132;2024-03-25T13:54:33;7.65;;;2.17;;
76566;SDS011;65428;53.194;6.132;2024-03-25T13:56:59;6.67;;;2.60;;
76566;SDS011;65428;53.194;6.132;2024-03-25T13:59:24;7.53;;;1.88;;
76566;SDS011;65428;53.194;6.132;2024-03-25T14:01:50;6.57;;;1.73;;
76566;SDS011;65428;53.194;6.132;2024-03-25T14:04:19;8.70;;;2.80;;
76566;SDS011;65428;53.194;6.132;2024-03-25T14:06:45;7.90;;;1.50;;
76566;SDS011;65428;53.194;6.132;2024-03-25T14:09:24;6.38;;;2.20;;
76566;SDS011;65428;53.194;6.132;2024-03-25T14:11:50;5.93;;;2.28;;
76566;SDS011;65428;53.194;6.132;2024-03-25T14:14:16;6.70;;;3.20;;
76566;SDS011;65428;53.194;6.132;2024-03-25T14:16:41;6.43;;;2.38;;
76566;SDS011;65428;53.194;6.132;2024-03-25T14:19:07;4.87;;;1.83;;
76566;SDS011;65428;53.194;6.132;2024-03-25T14:21:33;5.00;;;1.65;;
76566;SDS011;65428;53.194;6.132;2024-03-25T14:23:59;6.00;;;1.58;;
76566;SDS011;65428;53.194;6.132;2024-03-25T14:26:25;4.37;;;1.30;;
76566;SDS011;65428;53.194;6.132;2024-03-25T14:28:50;5.78;;;1.27;;
76566;SDS011;65428;53.194;6.132;2024-03-25T14:31:16;6.03;;;1.17;;
76566;SDS011;65428;53.194;6.132;2024-03-25T14:33:42;5.47;;;1.20;;
76566;SDS011;65428;53.194;6.132;2024-03-25T14:36:07;5.88;;;1.20;;
76566;SDS011;65428;53.194;6.132;2024-03-25T14:38:33;8.33;;;1.77;;